Time;durP1;ratioP1;P1;durP2;ratioP2;P2;SDS_P1;SDS_P2;PMS_P1;PMS_P2;Temp;Humidity;BMP_temperature;BMP_pressure;BME280_temperature;BME280_humidity;BME280_pressure;Samples;Min_cycle;Max_cycle;Signal;HPM_P1;HPM_P2
2021/04/23 00:00:48;;;;;;;1.45;0.60;;;22.30;27.30;;;;;;5085840;28;20031;-60
2021/04/23 00:03:30;;;;;;;1.27;0.80;;;22.30;27.30;;;;;;5082521;28;20089;-58
2021/04/23 00:06:25;;;;;;;3.08;0.60;;;22.30;27.30;;;;;;5066981;28;20034;-60
2021/04/23 00:08:52;;;;;;;;;;;22.40;27.30;;;;;;5086347;28;20046;-59
2021/04/23 00:11:23;;;;;;;0.40;0.40;;;22.30;27.30;;;;;;5082472;28;20315;-55
2021/04/23 00:13:49;;;;;;;1.45;0.50;;;22.30;27.30;;;;;;5083232;28;20100;-59
2021/04/23 00:16:15;;;;;;;1.20;0.68;;;22.30;27.30;;;;;;5068850;28;20040;-59
2021/04/23 00:18:41;;;;;;;1.70;0.80;;;22.30;27.40;;;;;;5092379;28;20512;-54
2021/04/23 00:21:08;;;;;;;2.17;1.00;;;22.30;27.30;;;;;;5065078;28;20032;-58
2021/04/23 00:23:34;;;;;;;1.30;0.80;;;22.30;27.40;;;;;;5068060;28;20025;-59
2021/04/23 00:26:02;;;;;;;2.35;0.80;;;22.20;27.30;;;;;;5065590;28;20039;-58
2021/04/23 00:28:27;;;;;;;1.85;0.73;;;22.30;27.40;;;;;;5084577;28;20470;-60
2021/04/23 00:30:54;;;;;;;1.45;0.70;;;22.30;27.40;;;;;;5084301;28;20042;-58
2021/04/23 00:33:22;;;;;;;1.75;0.75;;;22.30;27.40;;;;;;5080641;28;20115;-59
2021/04/23 00:35:50;;;;;;;1.27;0.60;;;22.20;27.40;;;;;;5066099;28;20032;-56
2021/04/23 00:38:22;;;;;;;1.67;0.60;;;22.20;27.40;;;;;;5084099;28;20036;-53
2021/04/23 00:40:58;;;;;;;1.25;0.85;;;22.20;27.40;;;;;;5079488;28;20024;-53
2021/04/23 00:43:28;;;;;;;1.83;0.65;;;22.20;27.40;;;;;;5084832;28;20041;-51
2021/04/23 00:45:54;;;;;;;1.00;0.57;;;22.20;27.40;;;;;;5079580;28;20020;-50
2021/04/23 00:48:21;;;;;;;1.13;0.77;;;22.20;27.40;;;;;;5064984;28;20435;-55
2021/04/23 00:50:50;;;;;;;0.93;0.50;;;22.20;27.40;;;;;;5083488;28;20064;-53
2021/04/23 00:53:29;;;;;;;1.42;0.65;;;22.20;27.40;;;;;;5063396;28;20047;-54
2021/04/23 00:55:58;;;;;;;1.17;0.70;;;22.20;27.40;;;;;;5083257;28;20368;-59
2021/04/23 00:58:28;;;;;;;1.98;0.73;;;22.20;27.40;;;;;;5081802;28;20055;-57
2021/04/23 01:00:59;;;;;;;1.30;0.70;;;22.20;27.40;;;;;;5085111;28;20020;-57
2021/04/23 01:03:28;;;;;;;1.90;0.75;;;22.20;27.50;;;;;;5065008;28;20613;-57
2021/04/23 01:05:54;;;;;;;1.67;0.75;;;22.20;27.50;;;;;;5084382;28;20360;-58
2021/04/23 01:08:26;;;;;;;1.35;0.60;;;22.20;27.50;;;;;;5061731;28;20047;-59
2021/04/23 01:11:03;;;;;;;2.72;1.00;;;22.20;27.50;;;;;;5081466;28;20035;-57
2021/04/23 01:13:31;;;;;;;1.23;0.70;;;22.20;27.40;;;;;;5083318;28;20040;-56
2021/04/23 01:15:59;;;;;;;1.88;0.90;;;22.20;27.50;;;;;;5084737;28;20025;-52
2021/04/23 01:18:25;;;;;;;1.40;0.68;;;22.10;27.40;;;;;;5082752;28;20067;-53
2021/04/23 01:21:09;;;;;;;1.75;0.90;;;22.20;27.40;;;;;;5082770;28;20078;-54
2021/04/23 01:23:39;;;;;;;1.13;0.60;;;22.20;27.40;;;;;;5081500;28;20024;-54
2021/04/23 01:26:06;;;;;;;2.15;0.90;;;22.10;27.40;;;;;;5085030;28;20155;-52
2021/04/23 01:28:33;;;;;;;1.17;0.57;;;22.20;27.40;;;;;;5084926;28;20033;-59
2021/04/23 01:31:01;;;;;;;1.95;0.80;;;22.10;27.40;;;;;;5081271;28;20084;-60
2021/04/23 01:33:28;;;;;;;1.05;0.50;;;22.10;27.40;;;;;;5081120;28;20037;-61
2021/04/23 01:35:54;;;;;;;1.33;0.82;;;22.10;27.40;;;;;;5064149;28;20036;-59
2021/04/23 01:38:20;;;;;;;2.00;0.82;;;22.10;27.40;;;;;;5064784;28;20375;-60
2021/04/23 01:40:46;;;;;;;1.70;0.73;;;22.10;27.40;;;;;;5083884;28;20333;-58
2021/04/23 01:43:15;;;;;;;2.63;1.08;;;22.10;27.40;;;;;;5064595;28;20035;-58
2021/04/23 01:45:41;;;;;;;0.60;0.45;;;22.10;27.40;;;;;;5065528;28;20353;-59
2021/04/23 01:48:08;;;;;;;2.25;0.70;;;22.10;27.40;;;;;;5082308;28;20020;-55
2021/04/23 01:50:34;;;;;;;1.70;0.80;;;22.10;27.40;;;;;;5081964;28;20032;-58
2021/04/23 01:53:00;;;;;;;0.85;0.60;;;22.10;27.40;;;;;;5078058;28;20032;-59
2021/04/23 01:55:27;;;;;;;1.20;0.70;;;22.10;27.40;;;;;;5083187;28;20089;-59
2021/04/23 01:57:53;;;;;;;1.30;0.60;;;22.10;27.40;;;;;;5082194;28;20036;-58
2021/04/23 02:00:33;;;;;;;3.80;0.82;;;22.10;27.40;;;;;;5081085;28;20033;-58
2021/04/23 02:03:02;;;;;;;1.45;0.70;;;22.10;27.30;;;;;;5083242;28;20028;-59
2021/04/23 02:05:29;;;;;;;1.23;0.70;;;22.00;27.30;;;;;;5079084;28;20060;-56
2021/04/23 02:07:58;;;;;;;1.30;0.70;;;22.10;27.40;;;;;;5063834;28;20190;-63
2021/04/23 02:10:29;;;;;;;1.00;0.60;;;22.00;27.30;;;;;;5077650;28;20137;-58
2021/04/23 02:12:55;;;;;;;1.58;0.80;;;22.10;27.30;;;;;;5083528;28;20032;-57
2021/04/23 02:15:24;;;;;;;1.90;0.90;;;22.00;27.30;;;;;;5083164;28;20391;-59
2021/04/23 02:17:50;;;;;;;1.13;0.50;;;22.00;27.30;;;;;;5064552;28;20020;-59
2021/04/23 02:20:22;;;;;;;1.60;0.70;;;22.00;27.30;;;;;;5063482;28;20040;-57
2021/04/23 02:22:48;;;;;;;2.13;0.80;;;22.00;27.30;;;;;;5074516;28;20038;-56
2021/04/23 02:25:18;;;;;;;2.05;0.70;;;22.00;27.30;;;;;;5078160;28;20024;-58
2021/04/23 02:27:45;;;;;;;2.83;0.90;;;22.00;27.30;;;;;;5079106;28;20032;-59
2021/04/23 02:30:19;;;;;;;2.58;0.68;;;22.00;27.30;;;;;;5081875;28;20032;-59
2021/04/23 02:32:45;;;;;;;1.63;0.70;;;22.00;27.30;;;;;;5083163;28;20091;-57
2021/04/23 02:35:13;;;;;;;0.70;0.50;;;22.00;27.30;;;;;;5081730;28;20103;-59
2021/04/23 02:37:40;;;;;;;2.08;0.70;;;22.00;27.30;;;;;;5064786;28;20459;-59
2021/04/23 02:40:08;;;;;;;1.75;0.68;;;22.00;27.30;;;;;;5081593;28;20146;-58
2021/04/23 02:42:35;;;;;;;1.00;0.52;;;22.00;27.30;;;;;;5079224;28;20040;-59
2021/04/23 02:45:02;;;;;;;1.25;0.80;;;22.00;27.30;;;;;;5062119;28;20119;-59
2021/04/23 02:47:28;;;;;;;2.35;0.70;;;22.00;27.30;;;;;;5080143;28;20032;-60
2021/04/23 02:49:53;;;;;;;1.90;0.88;;;22.00;27.30;;;;;;5082752;28;20351;-59
2021/04/23 02:52:19;;;;;;;1.27;0.60;;;22.00;27.30;;;;;;5082843;28;20394;-59
2021/04/23 02:54:46;;;;;;;1.35;0.57;;;22.00;27.30;;;;;;5064039;28;20123;-57
2021/04/23 02:57:15;;;;;;;1.58;0.52;;;22.00;27.30;;;;;;5079691;28;20059;-60
2021/04/23 02:59:42;;;;;;;1.83;0.75;;;22.00;27.30;;;;;;5082746;28;20109;-56
2021/04/23 03:02:08;;;;;;;1.30;0.70;;;22.00;27.30;;;;;;5082055;28;20417;-59
2021/04/23 03:04:34;;;;;;;0.75;0.50;;;22.00;27.30;;;;;;5079872;28;20043;-59
2021/04/23 03:07:00;;;;;;;1.85;0.70;;;22.00;27.30;;;;;;5082698;28;21402;-55
2021/04/23 03:09:25;;;;;;;1.58;0.60;;;22.00;27.30;;;;;;5081321;28;20024;-55
2021/04/23 03:11:51;;;;;;;2.70;0.85;;;22.00;27.30;;;;;;5084049;28;20312;-58
2021/04/23 03:14:17;;;;;;;1.10;0.70;;;21.90;27.30;;;;;;5081687;28;20032;-56
2021/04/23 03:16:43;;;;;;;1.75;0.60;;;21.90;27.30;;;;;;5083997;28;20340;-58
2021/04/23 03:19:14;;;;;;;1.83;0.68;;;22.00;27.30;;;;;;5081025;28;21895;-58
2021/04/23 03:21:40;;;;;;;1.63;0.60;;;22.00;27.30;;;;;;5077303;28;20953;-59
2021/04/23 03:24:09;;;;;;;1.40;0.70;;;21.90;27.30;;;;;;5083717;28;20126;-59
2021/04/23 03:26:34;;;;;;;1.45;0.80;;;22.00;27.30;;;;;;5083709;28;20025;-60
2021/04/23 03:29:01;;;;;;;1.60;0.60;;;21.90;27.30;;;;;;5084786;28;20039;-59
2021/04/23 03:31:27;;;;;;;2.05;0.80;;;21.90;27.30;;;;;;5086998;28;20111;-57
2021/04/23 03:33:53;;;;;;;1.67;0.65;;;21.90;27.30;;;;;;5066662;28;20411;-57
2021/04/23 03:36:19;;;;;;;1.48;0.80;;;21.90;27.30;;;;;;5068493;28;20506;-54
2021/04/23 03:38:46;;;;;;;0.70;0.50;;;21.90;27.30;;;;;;5082935;28;20036;-59
2021/04/23 03:41:17;;;;;;;1.52;0.68;;;21.90;27.30;;;;;;5085422;28;20028;-59
2021/04/23 03:43:43;;;;;;;1.55;0.80;;;21.90;27.30;;;;;;5084903;28;20025;-57
2021/04/23 03:46:10;;;;;;;0.75;0.50;;;21.90;27.20;;;;;;5085940;28;20028;-60
2021/04/23 03:48:37;;;;;;;1.27;0.70;;;21.90;27.30;;;;;;5085360;28;20406;-59
2021/04/23 03:51:04;;;;;;;1.20;0.60;;;21.90;27.30;;;;;;5082395;28;20394;-60
2021/04/23 03:53:30;;;;;;;2.15;0.73;;;21.90;27.20;;;;;;5088907;28;20355;-60
2021/04/23 03:55:57;;;;;;;0.82;0.60;;;21.90;27.20;;;;;;5080936;28;20034;-58
2021/04/23 03:58:25;;;;;;;1.10;0.65;;;21.90;27.20;;;;;;5082903;28;20059;-56
2021/04/23 04:00:57;;;;;;;1.08;0.60;;;21.90;27.20;;;;;;5085952;28;20123;-59
2021/04/23 04:03:25;;;;;;;1.17;0.70;;;21.80;27.20;;;;;;5081375;28;20111;-58
2021/04/23 04:05:51;;;;;;;1.45;0.80;;;21.90;27.20;;;;;;5087392;28;20036;-54
2021/04/23 04:08:17;;;;;;;3.28;0.60;;;21.80;27.20;;;;;;5084302;28;20028;-57
2021/04/23 04:10:45;;;;;;;2.25;0.70;;;21.80;27.20;;;;;;5086730;28;20357;-60
2021/04/23 04:13:11;;;;;;;1.67;0.80;;;21.80;27.20;;;;;;5083006;28;20112;-60
2021/04/23 04:15:37;;;;;;;1.30;0.65;;;21.80;27.20;;;;;;5084165;28;20107;-58
2021/04/23 04:18:04;;;;;;;1.15;0.70;;;21.80;27.20;;;;;;5084734;28;20047;-59
2021/04/23 04:20:32;;;;;;;1.25;0.70;;;21.80;27.20;;;;;;5085967;28;20312;-57
2021/04/23 04:22:59;;;;;;;1.90;0.70;;;21.80;27.20;;;;;;5064847;28;20060;-60
2021/04/23 04:25:28;;;;;;;1.35;0.70;;;21.80;27.20;;;;;;5087981;28;20103;-59
2021/04/23 04:27:54;;;;;;;0.93;0.68;;;21.80;27.20;;;;;;5081182;28;20024;-59
2021/04/23 04:30:21;;;;;;;1.17;0.70;;;21.80;27.20;;;;;;5087262;28;20344;-58
2021/04/23 04:32:47;;;;;;;2.58;0.95;;;21.80;27.20;;;;;;5078399;28;20028;-60
2021/04/23 04:35:13;;;;;;;1.00;0.70;;;21.80;27.30;;;;;;5065525;28;20105;-60
2021/04/23 04:37:39;;;;;;;0.80;0.50;;;21.80;27.20;;;;;;5066522;28;20079;-59
2021/04/23 04:40:07;;;;;;;2.22;1.00;;;21.80;27.30;;;;;;5082133;28;20363;-57
2021/04/23 04:42:34;;;;;;;2.30;0.70;;;21.80;27.30;;;;;;5084673;28;20148;-60
2021/04/23 04:45:01;;;;;;;0.75;0.70;;;21.80;27.30;;;;;;5063872;28;20057;-60
2021/04/23 04:47:31;;;;;;;2.00;0.80;;;21.80;27.30;;;;;;5083436;28;20021;-58
2021/04/23 04:50:00;;;;;;;1.42;0.75;;;21.80;27.40;;;;;;5086027;28;20028;-58
2021/04/23 04:52:27;;;;;;;1.38;1.00;;;21.80;27.40;;;;;;5082556;28;20064;-57
2021/04/23 04:54:54;;;;;;;1.35;0.85;;;21.80;27.40;;;;;;5083574;28;20097;-60
2021/04/23 04:57:20;;;;;;;1.27;0.77;;;21.70;27.40;;;;;;5080952;28;20105;-58
2021/04/23 04:59:47;;;;;;;1.00;0.60;;;21.80;27.40;;;;;;5080178;28;20048;-58
2021/04/23 05:02:16;;;;;;;3.00;1.40;;;21.70;27.40;;;;;;5066208;28;20051;-56
2021/04/23 05:04:43;;;;;;;2.80;1.00;;;21.80;27.50;;;;;;5081063;28;20052;-60
2021/04/23 05:07:09;;;;;;;2.83;0.98;;;21.80;27.50;;;;;;5079736;28;20031;-56
2021/04/23 05:09:35;;;;;;;1.55;0.85;;;21.80;27.50;;;;;;5087769;28;20028;-55
2021/04/23 05:12:01;;;;;;;2.20;0.80;;;21.70;27.50;;;;;;5085514;28;20035;-61
2021/04/23 05:14:27;;;;;;;1.75;0.90;;;21.70;27.50;;;;;;5082898;28;20050;-58
2021/04/23 05:16:54;;;;;;;1.10;0.70;;;21.80;27.60;;;;;;5084310;28;20034;-59
2021/04/23 05:19:20;;;;;;;1.42;0.90;;;21.70;27.60;;;;;;5081425;28;20052;-55
2021/04/23 05:21:46;;;;;;;1.92;0.70;;;21.70;27.60;;;;;;5088061;28;20056;-55
2021/04/23 05:24:13;;;;;;;2.15;0.80;;;21.80;27.60;;;;;;5084161;28;20111;-59
2021/04/23 05:26:39;;;;;;;1.50;0.60;;;21.70;27.60;;;;;;5081446;28;20374;-56
2021/04/23 05:29:05;;;;;;;1.60;0.90;;;21.80;27.70;;;;;;5080883;28;20035;-58
2021/04/23 05:31:34;;;;;;;1.95;0.80;;;21.70;27.70;;;;;;5082394;28;20111;-58
2021/04/23 05:34:01;;;;;;;2.67;1.42;;;21.70;27.60;;;;;;5078628;28;20407;-53
2021/04/23 05:36:27;;;;;;;2.75;0.80;;;21.70;27.70;;;;;;5061029;28;20111;-51
2021/04/23 05:38:53;;;;;;;1.63;0.80;;;21.80;27.70;;;;;;5062754;28;20136;-58
2021/04/23 05:41:20;;;;;;;2.15;0.90;;;21.70;27.70;;;;;;5084683;28;20107;-60
2021/04/23 05:43:48;;;;;;;2.30;0.90;;;21.70;28.20;;;;;;5076469;28;20405;-58
2021/04/23 05:46:17;;;;;;;1.60;0.68;;;21.70;27.70;;;;;;5080347;28;20082;-54
2021/04/23 05:48:44;;;;;;;2.15;0.80;;;21.70;27.80;;;;;;5081587;28;20077;-59
2021/04/23 05:51:10;;;;;;;1.75;0.90;;;21.70;27.80;;;;;;5080177;28;20037;-53
2021/04/23 05:53:36;;;;;;;1.60;0.63;;;21.70;27.80;;;;;;5079464;28;20032;-54
2021/04/23 05:56:01;;;;;;;2.03;0.88;;;21.70;27.80;;;;;;5078192;28;20056;-58
2021/04/23 05:58:27;;;;;;;2.33;0.82;;;21.70;27.90;;;;;;5078123;28;20048;-55
2021/04/23 06:00:53;;;;;;;1.60;0.90;;;21.70;27.90;;;;;;5080517;28;20032;-57
2021/04/23 06:03:19;;;;;;;0.75;0.52;;;21.70;27.90;;;;;;5073906;28;20103;-61
2021/04/23 06:05:45;;;;;;;2.63;0.90;;;21.70;27.90;;;;;;5080463;28;20050;-57
2021/04/23 06:08:13;;;;;;;1.17;0.70;;;21.70;27.90;;;;;;5063463;28;20443;-55
2021/04/23 06:10:41;;;;;;;1.35;0.82;;;21.70;28.00;;;;;;5081078;28;20073;-56
2021/04/23 06:13:06;;;;;;;1.45;0.70;;;21.70;28.00;;;;;;5078071;28;20063;-59
2021/04/23 06:15:32;;;;;;;1.30;0.70;;;21.70;28.00;;;;;;5063409;28;20455;-59
2021/04/23 06:17:59;;;;;;;1.83;0.82;;;21.70;28.00;;;;;;5077309;28;20037;-58
2021/04/23 06:20:28;;;;;;;1.38;0.80;;;21.80;28.10;;;;;;5081828;28;20462;-54
2021/04/23 06:22:55;;;;;;;2.10;0.80;;;21.70;28.10;;;;;;5083827;28;20032;-56
2021/04/23 06:25:22;;;;;;;1.95;1.05;;;21.70;28.10;;;;;;5066551;28;20071;-58
2021/04/23 06:27:50;;;;;;;1.60;0.73;;;21.70;28.10;;;;;;5087229;28;20035;-60
2021/04/23 06:30:20;;;;;;;2.22;1.23;;;21.70;28.10;;;;;;5075593;28;20028;-58
2021/04/23 06:32:46;;;;;;;2.42;0.90;;;21.70;28.20;;;;;;5082148;28;20032;-57
2021/04/23 06:35:17;;;;;;;1.73;0.90;;;21.70;28.20;;;;;;5076979;28;20025;-60
2021/04/23 06:37:44;;;;;;;2.28;0.82;;;21.80;28.20;;;;;;5082492;28;20038;-61
2021/04/23 06:40:11;;;;;;;2.13;0.80;;;21.70;28.20;;;;;;5086733;28;20042;-57
2021/04/23 06:42:37;;;;;;;2.35;0.90;;;21.80;28.30;;;;;;5081672;28;20098;-53
2021/04/23 06:45:08;;;;;;;1.23;0.90;;;21.80;28.30;;;;;;5062875;28;20043;-57
2021/04/23 06:47:35;;;;;;;1.48;0.70;;;21.80;28.40;;;;;;5082111;28;20558;-54
2021/04/23 06:50:03;;;;;;;1.00;0.63;;;21.90;28.50;;;;;;5083108;28;20028;-56
2021/04/23 06:52:29;;;;;;;1.38;0.60;;;21.90;28.50;;;;;;5078727;28;20025;-58
2021/04/23 06:54:54;;;;;;;3.80;0.88;;;22.00;28.50;;;;;;5080473;28;20035;-56
2021/04/23 06:57:20;;;;;;;2.00;0.70;;;22.00;28.50;;;;;;5071559;28;20032;-58
2021/04/23 06:59:46;;;;;;;2.35;0.80;;;22.00;28.40;;;;;;5069892;28;20158;-52
2021/04/23 07:02:12;;;;;;;1.48;0.57;;;22.10;28.30;;;;;;5082936;28;20558;-53
2021/04/23 07:04:38;;;;;;;1.13;0.52;;;22.10;28.20;;;;;;5087529;28;20020;-55
2021/04/23 07:07:03;;;;;;;2.00;0.80;;;22.10;28.20;;;;;;5087225;28;20016;-57
2021/04/23 07:09:29;;;;;;;1.98;0.68;;;22.20;28.10;;;;;;5084341;28;20027;-58
2021/04/23 07:11:57;;;;;;;0.90;0.47;;;22.20;28.10;;;;;;5082876;28;20097;-58
2021/04/23 07:14:23;;;;;;;1.20;0.60;;;22.20;28.00;;;;;;5082294;28;20028;-56
2021/04/23 07:16:49;;;;;;;2.00;0.60;;;22.20;27.90;;;;;;5084028;28;20024;-59
2021/04/23 07:19:15;;;;;;;1.00;0.50;;;22.30;27.90;;;;;;5086270;28;20087;-58
2021/04/23 07:21:41;;;;;;;1.40;0.80;;;22.30;27.90;;;;;;5087257;28;20445;-58
2021/04/23 07:24:07;;;;;;;1.65;0.70;;;22.30;27.80;;;;;;5080807;28;20020;-54
2021/04/23 07:26:33;;;;;;;1.80;0.70;;;22.30;27.80;;;;;;5090294;28;20105;-56
2021/04/23 07:28:59;;;;;;;2.25;0.73;;;22.40;27.70;;;;;;5066275;28;20427;-57
2021/04/23 07:31:25;;;;;;;1.38;0.70;;;22.30;27.70;;;;;;5085733;28;20052;-56
2021/04/23 07:33:51;;;;;;;1.25;0.60;;;22.40;27.70;;;;;;5084627;28;20109;-58
2021/04/23 07:36:17;;;;;;;1.75;0.63;;;22.40;27.60;;;;;;5085618;28;20031;-54
2021/04/23 07:38:42;;;;;;;2.15;0.70;;;22.40;27.60;;;;;;5082694;28;20047;-54
2021/04/23 07:41:08;;;;;;;2.17;1.00;;;22.40;27.60;;;;;;5085237;28;20119;-58
2021/04/23 07:43:34;;;;;;;2.78;0.70;;;22.40;27.50;;;;;;5080578;28;20367;-58
2021/04/23 07:46:02;;;;;;;1.58;0.65;;;22.40;27.50;;;;;;5084012;28;20039;-57
2021/04/23 07:48:29;;;;;;;1.63;0.80;;;22.40;27.50;;;;;;5085466;28;20174;-60
2021/04/23 07:50:57;;;;;;;1.30;0.60;;;22.50;27.50;;;;;;5082610;28;20040;-54
2021/04/23 07:53:23;;;;;;;2.50;0.90;;;22.50;27.50;;;;;;5082495;28;20390;-58
2021/04/23 07:55:49;;;;;;;1.80;0.60;;;22.50;27.40;;;;;;5086212;28;20033;-58
2021/04/23 07:58:15;;;;;;;2.83;0.60;;;22.60;27.40;;;;;;5086321;28;20059;-60
2021/04/23 08:00:42;;;;;;;2.38;0.60;;;22.60;27.30;;;;;;5083187;28;20043;-61
2021/04/23 08:03:08;;;;;;;1.15;0.55;;;22.60;27.20;;;;;;5082547;28;20083;-57
2021/04/23 08:05:34;;;;;;;1.77;0.68;;;22.60;27.10;;;;;;5088541;28;20132;-58
2021/04/23 08:08:01;;;;;;;1.20;0.40;;;22.70;27.10;;;;;;5073921;28;20029;-56
2021/04/23 08:10:27;;;;;;;1.13;0.55;;;22.70;27.10;;;;;;5057983;28;20049;-55
2021/04/23 08:12:54;;;;;;;2.78;0.75;;;22.70;27.00;;;;;;5046022;28;20041;-57
2021/04/23 08:15:23;;;;;;;1.88;0.80;;;22.70;27.00;;;;;;5068589;28;20099;-58
2021/04/23 08:17:55;;;;;;;1.38;0.57;;;22.70;27.00;;;;;;5065309;28;20107;-52
2021/04/23 08:20:21;;;;;;;1.48;0.60;;;22.60;27.50;;;;;;5059755;28;20029;-53
2021/04/23 08:22:47;;;;;;;1.33;0.57;;;22.60;27.00;;;;;;5063106;28;20116;-50
2021/04/23 08:25:14;;;;;;;1.67;0.65;;;22.60;27.00;;;;;;5066392;28;20423;-56
2021/04/23 08:27:40;;;;;;;1.33;0.60;;;22.70;27.10;;;;;;5082095;28;20382;-60
2021/04/23 08:30:08;;;;;;;1.20;0.65;;;22.70;27.10;;;;;;5082688;28;20042;-53
2021/04/23 08:32:35;;;;;;;1.58;0.80;;;22.60;27.00;;;;;;5083334;28;20028;-55
2021/04/23 08:35:01;;;;;;;0.77;0.52;;;22.70;27.10;;;;;;5083238;28;20040;-55
2021/04/23 08:37:26;;;;;;;1.27;0.80;;;22.60;27.10;;;;;;5080549;28;20036;-57
2021/04/23 08:39:52;;;;;;;2.13;0.77;;;22.70;27.10;;;;;;5085483;28;20032;-54
2021/04/23 08:42:21;;;;;;;1.27;0.57;;;22.70;27.10;;;;;;5081714;28;20067;-50
2021/04/23 08:44:48;;;;;;;1.27;0.60;;;22.70;27.10;;;;;;5052958;28;20024;-54
2021/04/23 08:47:16;;;;;;;1.65;0.75;;;22.70;27.10;;;;;;5081703;28;20097;-56
2021/04/23 08:49:44;;;;;;;1.17;0.73;;;22.70;27.10;;;;;;5084675;28;20035;-61
2021/04/23 08:52:10;;;;;;;1.58;0.90;;;22.70;27.10;;;;;;5085052;28;20032;-53
2021/04/23 08:54:36;;;;;;;2.08;0.90;;;22.70;27.10;;;;;;5083768;28;20038;-53
2021/04/23 08:57:03;;;;;;;1.88;0.80;;;22.70;27.10;;;;;;5083076;28;20435;-53
2021/04/23 08:59:29;;;;;;;2.53;1.05;;;22.70;27.10;;;;;;5083226;28;20058;-51
2021/04/23 09:01:55;;;;;;;2.08;0.90;;;22.70;27.10;;;;;;5066607;28;20024;-57
2021/04/23 09:04:21;;;;;;;2.25;1.17;;;22.70;27.10;;;;;;5084182;28;20352;-56
2021/04/23 09:07:01;;;;;;;1.77;0.88;;;22.80;27.20;;;;;;5081416;28;20031;-51
2021/04/23 09:09:34;;;;;;;4.00;1.17;;;22.70;27.20;;;;;;5066393;28;20016;-54
2021/04/23 09:12:16;;;;;;;2.03;1.10;;;22.80;27.20;;;;;;5082395;28;20436;-57
2021/04/23 09:14:43;;;;;;;2.95;1.10;;;22.70;27.20;;;;;;5081997;28;20448;-56
2021/04/23 09:17:10;;;;;;;2.70;1.02;;;22.70;27.30;;;;;;5065001;28;20110;-60
2021/04/23 09:19:39;;;;;;;1.52;0.85;;;22.70;27.30;;;;;;5082272;28;20040;-51
2021/04/23 09:22:08;;;;;;;2.38;0.90;;;22.70;27.30;;;;;;5080086;28;20063;-57
2021/04/23 09:24:36;;;;;;;1.98;0.90;;;22.70;27.30;;;;;;5081204;28;20520;-56
2021/04/23 09:27:13;;;;;;;1.45;0.90;;;22.70;27.30;;;;;;5079329;28;20154;-55
2021/04/23 09:29:41;;;;;;;2.55;0.98;;;22.70;27.30;;;;;;5072728;28;20095;-53
2021/04/23 09:32:20;;;;;;;1.73;0.77;;;22.70;27.40;;;;;;5080636;28;20044;-56
2021/04/23 09:34:50;;;;;;;1.25;0.55;;;22.80;27.40;;;;;;5053101;28;20237;-59
2021/04/23 09:37:19;;;;;;;2.53;0.80;;;22.80;27.40;;;;;;5075230;28;20085;-51
2021/04/23 09:39:46;;;;;;;2.22;0.80;;;22.80;27.50;;;;;;5074176;28;20455;-54
2021/04/23 09:42:15;;;;;;;1.95;0.80;;;22.80;27.50;;;;;;5080358;28;20028;-52
2021/04/23 09:44:42;;;;;;;1.70;0.75;;;22.80;27.50;;;;;;5081182;28;20028;-55
2021/04/23 09:47:22;;;;;;;2.03;0.70;;;22.80;27.40;;;;;;5078703;28;20042;-60
2021/04/23 09:49:53;;;;;;;1.17;0.60;;;22.80;27.40;;;;;;5064018;28;20032;-50
2021/04/23 09:52:19;;;;;;;1.02;0.50;;;22.80;27.40;;;;;;5078349;28;20063;-51
2021/04/23 09:54:50;;;;;;;1.52;0.50;;;22.80;27.40;;;;;;5058906;28;20119;-52
2021/04/23 09:57:22;;;;;;;1.35;0.77;;;22.80;27.40;;;;;;5075057;28;20023;-56
2021/04/23 09:59:57;;;;;;;1.30;0.57;;;22.80;27.40;;;;;;5080326;28;20116;-52
2021/04/23 10:02:26;;;;;;;1.80;0.70;;;22.80;27.40;;;;;;5074000;28;20028;-57
2021/04/23 10:04:53;;;;;;;1.92;0.80;;;22.80;27.40;;;;;;5077165;28;20126;-53
2021/04/23 10:07:26;;;;;;;1.67;0.88;;;22.80;27.40;;;;;;5070493;28;20112;-52
2021/04/23 10:10:09;;;;;;;1.55;0.65;;;22.80;27.40;;;;;;5071160;28;20028;-55
2021/04/23 10:12:50;;;;;;;1.75;0.80;;;22.80;27.40;;;;;;5057125;28;20129;-53
2021/04/23 10:15:20;;;;;;;1.15;0.60;;;22.80;27.40;;;;;;5078581;28;20051;-58
2021/04/23 10:17:52;;;;;;;1.50;0.70;;;22.80;27.40;;;;;;5055847;28;20041;-53
2021/04/23 10:20:23;;;;;;;2.33;0.60;;;22.80;27.40;;;;;;5053996;28;20098;-53
2021/04/23 10:22:49;;;;;;;1.50;0.70;;;22.80;27.40;;;;;;5071430;28;20108;-49
2021/04/23 10:25:16;;;;;;;0.95;0.50;;;22.80;27.40;;;;;;5076444;28;20024;-53
2021/04/23 10:27:43;;;;;;;1.48;0.70;;;22.80;27.40;;;;;;5075972;28;20021;-53
2021/04/23 10:30:15;;;;;;;3.35;0.70;;;22.90;27.50;;;;;;5052075;28;20362;-57
2021/04/23 10:32:42;;;;;;;1.35;0.80;;;22.90;27.50;;;;;;5077103;28;20082;-59
2021/04/23 10:35:08;;;;;;;1.25;0.80;;;22.90;27.50;;;;;;5068492;28;20021;-60
2021/04/23 10:37:35;;;;;;;3.15;0.70;;;22.90;27.50;;;;;;5083909;28;20047;-65
2021/04/23 10:40:02;;;;;;;0.85;0.50;;;22.90;27.60;;;;;;5052783;28;20046;-61
2021/04/23 10:42:48;;;;;;;1.98;0.90;;;22.90;27.60;;;;;;5072720;28;20743;-64
2021/04/23 10:45:27;;;;;;;2.00;0.80;;;22.90;27.80;;;;;;5062776;28;20033;-61
2021/04/23 10:47:57;;;;;;;1.55;0.80;;;22.80;27.70;;;;;;5047477;28;20063;-63
2021/04/23 10:50:26;;;;;;;1.52;0.80;;;22.80;27.70;;;;;;5068355;28;20020;-59
2021/04/23 10:53:03;;;;;;;2.22;0.80;;;22.80;27.80;;;;;;5064810;28;20028;-60
2021/04/23 10:55:47;;;;;;;1.55;0.68;;;22.80;27.80;;;;;;5061043;28;20037;-61
2021/04/23 10:58:38;;;;;;;1.33;0.77;;;22.90;28.00;;;;;;5060530;28;20035;-58
2021/04/23 11:01:21;;;;;;;2.60;0.80;;;22.90;28.20;;;;;;5066972;28;20072;-60
2021/04/23 11:04:05;;;;;;;2.03;0.80;;;22.90;28.80;;;;;;5080566;28;20032;-59
2021/04/23 11:06:37;;;;;;;1.27;0.67;;;23.00;28.50;;;;;;5077905;28;20364;-58
2021/04/23 11:09:07;;;;;;;2.33;0.90;;;23.10;28.60;;;;;;5073809;28;20082;-61
2021/04/23 11:11:35;;;;;;;1.48;0.70;;;23.20;28.70;;;;;;5055077;28;20123;-57
2021/04/23 11:14:22;;;;;;;2.70;0.73;;;23.20;28.70;;;;;;5066690;28;20032;-59
2021/04/23 11:16:51;;;;;;;1.38;0.60;;;23.30;28.80;;;;;;5065113;28;20021;-58
2021/04/23 11:19:20;;;;;;;2.75;1.15;;;23.40;28.80;;;;;;5065017;28;20851;-59
2021/04/23 11:21:53;;;;;;;1.70;0.70;;;23.50;28.90;;;;;;5051442;28;20393;-57
2021/04/23 11:24:28;;;;;;;1.42;0.70;;;23.60;28.80;;;;;;5075339;28;20093;-59
2021/04/23 11:27:07;;;;;;;1.00;0.50;;;23.70;28.80;;;;;;5081847;28;20048;-60
2021/04/23 11:29:41;;;;;;;1.35;0.70;;;23.80;28.80;;;;;;5080325;28;20024;-60
2021/04/23 11:32:07;;;;;;;1.55;0.85;;;23.90;28.80;;;;;;5085596;28;20363;-55
2021/04/23 11:34:36;;;;;;;1.73;0.77;;;23.90;28.70;;;;;;5074492;28;20048;-61
2021/04/23 11:37:05;;;;;;;1.20;0.68;;;24.00;28.60;;;;;;5068879;28;20032;-60
2021/04/23 11:39:33;;;;;;;0.93;0.50;;;24.10;28.40;;;;;;5075917;28;20103;-60
2021/04/23 11:42:08;;;;;;;1.50;0.70;;;24.10;28.30;;;;;;5093577;28;20102;-57
2021/04/23 11:44:42;;;;;;;1.67;0.77;;;24.10;28.10;;;;;;5090705;28;20229;-59
2021/04/23 11:47:08;;;;;;;;;;;24.10;27.90;;;;;;5080449;28;20101;-60
2021/04/23 11:49:34;;;;;;;2.05;0.63;;;24.10;27.90;;;;;;5073444;28;19920;-59
2021/04/23 11:52:03;;;;;;;1.23;0.68;;;24.10;27.80;;;;;;5078703;28;20124;-61
2021/04/23 11:54:32;;;;;;;1.63;0.77;;;24.00;27.60;;;;;;5097179;28;20020;-57
2021/04/23 11:57:01;;;;;;;1.10;0.60;;;24.00;27.50;;;;;;5096925;28;20032;-54
2021/04/23 11:59:27;;;;;;;2.17;0.85;;;24.00;27.40;;;;;;5093867;28;20080;-46
2021/04/23 12:01:52;;;;;;;1.55;0.70;;;24.00;27.30;;;;;;5081520;28;20034;-57
2021/04/23 12:04:45;;;;;;;0.93;0.60;;;24.00;27.30;;;;;;5080737;28;20406;-61
2021/04/23 12:07:12;;;;;;;2.53;0.70;;;24.00;27.30;;;;;;5085009;28;20052;-53
2021/04/23 12:09:38;;;;;;;0.98;0.47;;;24.00;27.30;;;;;;5091416;28;20047;-52
2021/04/23 12:12:07;;;;;;;1.42;0.70;;;24.00;27.30;;;;;;5091277;28;20023;-56
2021/04/23 12:14:59;;;;;;;1.27;0.60;;;24.10;27.40;;;;;;5083775;28;20020;-60
2021/04/23 12:17:25;;;;;;;1.50;0.60;;;24.10;27.40;;;;;;5078949;28;20055;-56
2021/04/23 12:19:50;;;;;;;1.08;0.57;;;24.00;27.30;;;;;;5096435;28;20111;-56
2021/04/23 12:22:16;;;;;;;1.50;0.80;;;24.00;27.80;;;;;;5082655;28;20120;-59
2021/04/23 12:24:42;;;;;;;1.35;0.73;;;24.00;27.40;;;;;;5076473;28;20332;-55
2021/04/23 12:27:08;;;;;;;1.48;0.60;;;23.90;27.30;;;;;;5065216;28;20226;-58
2021/04/23 12:29:34;;;;;;;1.02;0.60;;;24.00;27.30;;;;;;5076227;28;20028;-50
2021/04/23 12:32:00;;;;;;;1.23;0.73;;;24.00;27.40;;;;;;5077271;28;20135;-58
2021/04/23 12:34:26;;;;;;;0.93;0.40;;;24.00;27.40;;;;;;5082659;28;20016;-58
2021/04/23 12:36:52;;;;;;;0.63;0.50;;;24.10;27.40;;;;;;5088743;28;20051;-58
2021/04/23 12:39:23;;;;;;;1.30;0.60;;;24.10;27.40;;;;;;5091555;28;20395;-58
2021/04/23 12:41:56;;;;;;;2.28;0.55;;;24.20;27.40;;;;;;5082835;28;20020;-58
2021/04/23 12:44:28;;;;;;;1.95;0.60;;;24.20;27.40;;;;;;5063186;28;20025;-60
2021/04/23 12:47:00;;;;;;;1.25;0.60;;;24.20;27.40;;;;;;5040019;28;20028;-60
2021/04/23 12:49:27;;;;;;;0.98;0.57;;;24.20;27.40;;;;;;5065163;28;20533;-57
2021/04/23 12:52:09;;;;;;;1.63;0.93;;;24.30;27.40;;;;;;5065230;28;20036;-59
2021/04/23 12:54:49;;;;;;;3.88;0.70;;;24.30;27.30;;;;;;5052055;28;20399;-58